Time;durP1;ratioP1;P1;durP2;ratioP2;P2;SDS_P1;SDS_P2;PMS_P1;PMS_P2;Temp;Humidity;BMP_temperature;BMP_pressure;BME280_temperature;BME280_humidity;BME280_pressure;Samples;Min_cycle;Max_cycle;Signal;HPM_P1;HPM_P2
2021/09/19 00:01:44;;;;;;;6.90;3.77;;;;;;;11.60;82.87;100810.98;5143079;57;21137;-83
2021/09/19 00:06:50;;;;;;;4.67;3.87;;;;;;;11.60;83.01;100807.49;5142864;57;21125;-84
2021/09/19 00:11:55;;;;;;;4.20;3.80;;;;;;;11.62;83.29;100813.01;5169815;57;21219;-81
2021/09/19 00:17:02;;;;;;;4.53;3.63;;;;;;;11.59;83.58;100811.95;5177875;57;21184;-82
2021/09/19 00:22:07;;;;;;;6.07;3.33;;;;;;;11.62;83.58;100812.16;5177676;57;21211;-86
2021/09/19 00:27:14;;;;;;;6.67;3.90;;;;;;;11.66;83.57;100812.78;5177655;57;21183;-82
2021/09/19 00:32:20;;;;;;;5.67;4.10;;;;;;;11.70;83.57;100815.08;5176973;57;21578;-82
2021/09/19 00:37:26;;;;;;;4.67;3.80;;;;;;;11.76;83.76;100815.13;5179410;57;21171;-83
2021/09/19 00:42:32;;;;;;;5.40;3.70;;;;;;;11.78;83.71;100814.02;5180639;57;21175;-84
2021/09/19 00:47:40;;;;;;;4.97;3.33;;;;;;;11.76;83.76;100806.70;5181642;57;21211;-85
2021/09/19 00:52:47;;;;;;;4.70;3.50;;;;;;;11.68;83.22;100801.11;5181516;57;21187;-84
2021/09/19 00:57:55;;;;;;;5.37;4.00;;;;;;;11.62;83.57;100798.44;5180095;57;21192;-83
2021/09/19 01:03:01;;;;;;;6.43;4.17;;;;;;;11.66;83.92;100799.05;5180120;57;21218;-82
2021/09/19 01:08:08;;;;;;;6.77;3.73;;;;;;;11.61;83.63;100798.08;5180187;57;21244;-85
2021/09/19 01:13:14;;;;;;;5.47;4.00;;;;;;;11.58;83.73;100797.02;5277125;56;21116;-81
2021/09/19 01:18:21;;;;;;;4.63;3.90;;;;;;;11.58;83.65;100797.49;5290849;56;21175;-81
2021/09/19 01:23:31;;;;;;;6.30;3.60;;;;;;;11.56;83.94;100804.23;5289635;56;21175;-82
2021/09/19 01:28:37;;;;;;;4.33;3.27;;;;;;;11.49;83.93;100804.33;5289219;56;21593;-81
2021/09/19 01:33:45;;;;;;;7.40;3.40;;;;;;;11.48;84.17;100802.63;5289234;55;21136;-85
2021/09/19 01:38:51;;;;;;;4.83;4.10;;;;;;;11.54;84.41;100796.87;5227026;56;21163;-83
2021/09/19 01:43:56;;;;;;;5.30;4.30;;;;;;;11.50;84.26;100795.90;5224297;56;22396;-81
2021/09/19 01:49:03;;;;;;;4.60;4.13;;;;;;;11.48;84.51;100791.20;5224445;56;21202;-83
2021/09/19 01:54:09;;;;;;;3.77;3.00;;;;;;;11.46;84.56;100792.63;5224192;56;21170;-86
2021/09/19 01:59:15;;;;;;;5.87;3.50;;;;;;;11.48;84.55;100788.55;5223947;56;21676;-81
2021/09/19 02:04:21;;;;;;;5.60;4.13;;;;;;;11.52;84.79;100789.53;5222951;56;21167;-81
2021/09/19 02:09:27;;;;;;;9.33;5.07;;;;;;;11.54;84.72;100789.41;5221899;56;21791;-82
2021/09/19 02:14:34;;;;;;;5.73;3.83;;;;;;;11.57;85.00;100796.65;5165513;56;21179;-81
2021/09/19 02:19:40;;;;;;;7.60;4.00;;;;;;;11.53;84.65;100793.02;5165466;57;21202;-80
2021/09/19 02:24:46;;;;;;;11.40;4.30;;;;;;;11.52;84.73;100790.85;5165050;57;21441;-85
2021/09/19 02:29:52;;;;;;;6.97;4.73;;;;;;;11.50;84.57;100786.15;5164696;57;21557;-80
2021/09/19 02:34:58;;;;;;;12.03;4.83;;;;;;;11.49;84.73;100782.29;5171534;57;21245;-81
2021/09/19 02:40:05;;;;;;;6.17;4.60;;;;;;;11.44;84.58;100780.02;5210370;56;21196;-80
2021/09/19 02:45:12;;;;;;;10.47;4.90;;;;;;;11.41;84.72;100780.25;5211247;56;21172;-85
2021/09/19 02:50:21;;;;;;;7.10;4.70;;;;;;;11.38;84.51;100780.95;5211364;56;21188;-83
2021/09/19 02:55:27;;;;;;;6.90;4.90;;;;;;;11.35;84.44;100783.83;5211074;56;21176;-85
2021/09/19 03:00:33;;;;;;;9.47;4.87;;;;;;;11.34;84.65;100779.02;5210803;56;21164;-82
2021/09/19 03:05:39;;;;;;;8.60;4.90;;;;;;;11.36;84.72;100777.58;5211016;56;21264;-85
2021/09/19 03:10:45;;;;;;;8.20;4.70;;;;;;;11.32;84.56;100776.12;5214984;56;21133;-85
2021/09/19 03:15:50;;;;;;;6.93;4.53;;;;;;;11.26;84.49;100768.19;5256889;56;21179;-81
2021/09/19 03:20:56;;;;;;;10.37;5.70;;;;;;;11.23;83.98;100772.38;5207617;56;21530;-80
2021/09/19 03:26:02;;;;;;;12.03;6.87;;;;;;;11.18;83.98;100763.94;5257177;56;21176;-84
2021/09/19 03:31:08;;;;;;;6.40;5.13;;;;;;;11.01;82.93;100765.21;5257172;56;21180;-78
2021/09/19 03:36:14;;;;;;;6.87;5.13;;;;;;;10.68;82.77;100769.92;5235617;56;21174;-81
2021/09/19 03:41:20;;;;;;;5.60;4.27;;;;;;;10.48;83.33;100774.50;5201309;57;21123;-80
2021/09/19 03:46:27;;;;;;;6.83;4.60;;;;;;;10.37;83.54;100770.01;5200208;57;21166;-81
2021/09/19 03:51:33;;;;;;;6.90;5.03;;;;;;;10.36;84.46;100778.05;5201365;57;22343;-85
2021/09/19 03:56:39;;;;;;;9.47;4.93;;;;;;;10.43;84.97;100783.23;5199887;57;21167;-82
2021/09/19 04:01:45;;;;;;;24.10;11.60;;;;;;;10.36;84.26;100772.28;5198226;57;21188;-82
2021/09/19 04:06:51;;;;;;;8.77;4.77;;;;;;;10.17;83.79;100774.05;5198245;57;21871;-83
2021/09/19 04:11:57;;;;;;;7.20;5.17;;;;;;;9.96;83.93;100779.53;5193906;56;21468;-82
2021/09/19 04:17:03;;;;;;;11.90;5.50;;;;;;;9.73;84.21;100787.77;5165761;57;22020;-80
2021/09/19 04:22:09;;;;;;;8.13;5.03;;;;;;;9.59;85.08;100783.08;5165782;57;21112;-80
2021/09/19 04:27:14;;;;;;;8.30;5.40;;;;;;;9.67;86.14;100784.70;5165946;57;21160;-81
2021/09/19 04:32:21;;;;;;;10.80;4.90;;;;;;;9.82;86.35;100787.59;5165830;57;21413;-84
2021/09/19 04:37:27;;;;;;;6.13;4.63;;;;;;;9.90;85.72;100783.95;5194849;56;21177;-80
2021/09/19 04:42:33;;;;;;;6.40;4.87;;;;;;;9.91;85.83;100785.64;5211101;56;21180;-80
2021/09/19 04:47:39;;;;;;;8.10;5.57;;;;;;;9.97;86.50;100784.34;5210975;56;21121;-84
2021/09/19 04:52:45;;;;;;;7.63;5.57;;;;;;;10.05;86.60;100788.63;5211937;56;21180;-84
2021/09/19 04:57:50;;;;;;;8.90;4.07;;;;;;;10.08;86.75;100785.77;5212101;56;21118;-80
2021/09/19 05:02:56;;;;;;;6.67;4.20;;;;;;;10.11;86.80;100793.45;5211580;56;21212;-85
2021/09/19 05:08:02;;;;;;;9.97;3.73;;;;;;;10.11;87.00;100789.02;5212403;56;21200;-82
2021/09/19 05:13:07;;;;;;;10.17;4.37;;;;;;;10.15;87.38;100791.81;5223034;56;22381;-84
2021/09/19 05:18:13;;;;;;;8.23;4.93;;;;;;;10.20;87.67;100793.69;5257173;56;21121;-83
2021/09/19 05:23:19;;;;;;;6.10;3.77;;;;;;;10.22;88.00;100798.88;5258019;56;22377;-82
2021/09/19 05:28:25;;;;;;;7.27;3.87;;;;;;;10.19;88.15;100804.37;5258299;56;21192;-82
2021/09/19 05:33:30;;;;;;;5.00;4.13;;;;;;;10.18;88.36;100798.68;5257536;55;21183;-85
2021/09/19 05:38:36;;;;;;;7.67;4.10;;;;;;;10.16;88.69;100798.79;5208121;56;21099;-81
2021/09/19 05:43:42;;;;;;;4.60;3.97;;;;;;;10.15;88.96;100798.42;5201242;57;21207;-82
2021/09/19 05:48:48;;;;;;;6.20;5.10;;;;;;;10.18;89.11;100806.61;5201266;57;22348;-83
2021/09/19 05:53:54;;;;;;;5.27;4.17;;;;;;;10.21;89.40;100800.67;5201201;57;21178;-81
2021/09/19 05:58:59;;;;;;;9.23;3.97;;;;;;;10.24;89.56;100802.22;5201323;57;21183;-82
2021/09/19 06:04:05;;;;;;;5.87;4.70;;;;;;;10.27;89.71;100805.12;5201291;57;21518;-81
2021/09/19 06:09:11;;;;;;;6.87;4.83;;;;;;;10.32;89.89;100803.85;5201064;57;21645;-84
2021/09/19 06:14:16;;;;;;;11.40;5.50;;;;;;;10.32;90.09;100801.21;5190449;56;21191;-85
2021/09/19 06:19:22;;;;;;;8.23;4.73;;;;;;;10.41;90.25;100802.33;5167282;57;21703;-83
2021/09/19 06:24:30;;;;;;;8.67;4.57;;;;;;;10.43;90.20;100805.72;5167196;57;21178;-84
2021/09/19 06:29:36;;;;;;;14.73;5.23;;;;;;;10.49;90.20;100800.84;5166663;57;21120;-82
2021/09/19 06:34:42;;;;;;;8.30;4.57;;;;;;;10.53;90.10;100804.95;5168259;57;21232;-85
2021/09/19 06:39:48;;;;;;;4.93;4.43;;;;;;;10.59;90.34;100795.71;5209065;56;21255;-79
2021/09/19 06:44:54;;;;;;;4.10;3.70;;;;;;;10.68;90.51;100799.50;5209646;56;22362;-83
2021/09/19 06:50:00;;;;;;;5.90;4.40;;;;;;;10.76;90.32;100795.31;5209752;56;21220;-83
2021/09/19 06:55:07;;;;;;;11.43;4.83;;;;;;;10.82;90.15;100791.39;5209530;56;21137;-83
2021/09/19 07:00:13;;;;;;;6.00;4.40;;;;;;;10.88;90.24;100797.05;5209290;56;21180;-83
2021/09/19 07:05:20;;;;;;;5.80;4.23;;;;;;;10.94;89.97;100795.76;5210769;56;21180;-83
2021/09/19 07:10:26;;;;;;;9.27;4.87;;;;;;;10.99;89.75;100794.95;5216474;56;21271;-84
2021/09/19 07:15:34;;;;;;;17.00;4.17;;;;;;;11.02;89.59;100793.37;5258137;55;21506;-85
2021/09/19 07:20:40;;;;;;;8.00;4.93;;;;;;;11.08;89.58;100796.89;5278405;55;21103;-81
2021/09/19 07:25:46;;;;;;;7.90;4.50;;;;;;;11.17;89.58;100794.02;5271071;55;22429;-86
2021/09/19 07:30:52;;;;;;;8.23;3.97;;;;;;;11.26;89.45;100800.80;5269495;56;22393;-84
2021/09/19 07:35:58;;;;;;;5.90;4.40;;;;;;;11.36;89.26;100805.38;5265272;56;21179;-84
2021/09/19 07:41:04;;;;;;;5.57;3.67;;;;;;;11.49;89.40;100809.63;5257798;56;21219;-85
2021/09/19 07:46:10;;;;;;;7.10;4.00;;;;;;;11.56;88.85;100806.87;5257634;56;21692;-86
2021/09/19 07:51:16;;;;;;;5.53;4.63;;;;;;;11.61;88.36;100800.72;5257595;56;21218;-83
2021/09/19 07:56:23;;;;;;;7.10;4.20;;;;;;;11.71;88.40;100801.35;5257700;56;22369;-82
2021/09/19 08:01:29;;;;;;;7.40;4.70;;;;;;;11.85;88.52;100802.47;5257611;56;21184;-82
2021/09/19 08:06:35;;;;;;;8.67;3.30;;;;;;;11.98;88.34;100796.56;5257511;55;21116;-84
2021/09/19 08:11:40;;;;;;;5.47;4.13;;;;;;;12.13;88.69;100799.33;5257602;56;21219;-84
2021/09/19 08:16:46;;;;;;;6.77;4.17;;;;;;;12.27;87.97;100798.22;5234635;56;21129;-83
2021/09/19 08:21:52;;;;;;;5.77;2.97;;;;;;;12.29;86.92;100810.40;5202930;56;21188;-83
2021/09/19 08:26:58;;;;;;;5.73;3.77;;;;;;;12.40;86.83;100808.69;5210369;56;21204;-83
2021/09/19 08:32:06;;;;;;;4.73;3.03;;;;;;;12.49;87.04;100803.98;5211441;56;21125;-83
2021/09/19 08:37:12;;;;;;;10.00;3.37;;;;;;;12.64;86.63;100808.04;5169923;56;21457;-85
2021/09/19 08:42:19;;;;;;;5.50;3.27;;;;;;;12.78;85.46;100808.23;5141651;57;21725;-83
2021/09/19 08:47:27;;;;;;;9.07;3.87;;;;;;;12.89;86.09;100802.87;5141545;57;21191;-82
2021/09/19 08:52:33;;;;;;;3.83;2.40;;;;;;;13.03;85.61;100807.88;5141074;57;21189;-86
2021/09/19 08:57:40;;;;;;;5.37;2.77;;;;;;;13.17;85.10;100804.95;5141462;57;21567;-84
2021/09/19 09:02:50;;;;;;;3.73;2.60;;;;;;;13.27;84.86;100806.36;5140428;57;21219;-83
2021/09/19 09:07:59;;;;;;;3.47;2.17;;;;;;;13.35;84.09;100809.20;5138647;57;21188;-82
2021/09/19 09:13:15;;;;;;;7.03;2.40;;;;;;;13.47;82.95;100808.64;5139547;57;21807;-84
2021/09/19 09:18:37;;;;;;;1.87;1.70;;;;;;;13.62;82.26;100810.83;5138901;57;21227;-86
2021/09/19 09:23:50;;;;;;;3.63;1.70;;;;;;;13.76;80.31;100807.47;5140729;57;21181;-83
2021/09/19 09:29:10;;;;;;;2.33;2.12;;;;;;;13.94;79.56;100808.54;5141645;57;21509;-84
2021/09/19 09:34:23;;;;;;;8.00;2.20;;;;;;;14.12;78.05;100806.09;5142037;57;21228;-84
2021/09/19 09:39:37;;;;;;;;;;;;;;;14.35;76.41;100808.91;5215330;56;22390;-83
2021/09/19 09:44:51;;;;;;;5.60;2.60;;;;;;;14.53;75.23;100810.43;5210693;56;20187;-82
2021/09/19 09:50:05;;;;;;;4.27;1.70;;;;;;;14.83;76.44;100817.48;5210970;56;21176;-84
2021/09/19 09:55:14;;;;;;;1.33;1.23;;;;;;;15.17;73.89;100812.09;5211234;56;21184;-85
2021/09/19 10:00:22;;;;;;;3.70;1.83;;;;;;;15.49;72.18;100813.94;5210650;56;21425;-81
2021/09/19 10:05:28;;;;;;;2.40;1.50;;;;;;;15.52;71.09;100815.98;5210883;56;21184;-83
2021/09/19 10:10:41;;;;;;;1.13;1.13;;;;;;;15.41;70.67;100807.66;5211018;56;21185;-82
2021/09/19 10:15:47;;;;;;;4.92;2.87;;;;;;;15.41;66.90;100812.50;5211511;56;21133;-84
2021/09/19 10:20:53;;;;;;;4.70;2.70;;;;;;;15.14;65.40;100811.88;5211361;56;21452;-83
2021/09/19 10:26:18;;;;;;;1.47;1.47;;;;;;;14.84;66.97;100814.67;5211268;56;21177;-81
2021/09/19 10:31:28;;;;;;;2.57;1.50;;;;;;;14.88;66.97;100820.09;5210168;56;21181;-85
2021/09/19 10:36:49;;;;;;;1.83;1.70;;;;;;;14.88;64.67;100819.25;5227904;56;21416;-83
2021/09/19 10:42:38;;;;;;;3.63;1.40;;;;;;;14.73;65.51;100805.50;5250594;56;21192;-84
2021/09/19 10:47:36;;;;;;;5.83;2.27;;;;;;;14.77;65.74;100829.55;5203837;56;21756;-83
2021/09/19 10:52:47;;;;;;;1.67;1.57;;;;;;;14.81;66.55;100834.95;5212281;56;21189;-83
2021/09/19 10:58:05;;;;;;;9.73;1.93;;;;;;;14.84;66.30;100831.98;5211379;56;21188;-80
2021/09/19 11:03:29;;;;;;;10.27;3.70;;;;;;;14.82;66.14;100824.63;5210349;56;21192;-81
2021/09/19 11:08:41;;;;;;;10.20;3.67;;;;;;;14.83;66.29;100828.97;5209351;56;21177;-81
2021/09/19 11:13:53;;;;;;;8.13;4.13;;;;;;;14.89;65.71;100829.76;5209381;56;21204;-83
2021/09/19 11:19:04;;;;;;;17.17;8.10;;;;;;;14.90;65.97;100831.94;5227431;56;21175;-84
2021/09/19 11:24:13;;;;;;;14.40;8.38;;;;;;;14.87;66.07;100823.73;5244335;56;21188;-84
2021/09/19 11:29:26;;;;;;;4.07;2.87;;;;;;;14.85;64.56;100821.69;5244615;56;21253;-84
2021/09/19 11:34:31;;;;;;;7.75;3.08;;;;;;;14.83;65.56;100830.79;5241531;56;21302;-83
2021/09/19 11:39:38;;;;;;;11.83;2.27;;;;;;;14.76;65.28;100822.05;5184205;57;21207;-82
2021/09/19 11:44:48;;;;;;;5.30;2.00;;;;;;;14.72;65.49;100833.10;5185045;57;21179;-85
2021/09/19 11:49:56;;;;;;;6.00;2.70;;;;;;;14.70;65.16;100829.73;5180727;57;21180;-86
2021/09/19 11:55:02;;;;;;;7.07;2.40;;;;;;;14.62;64.89;100830.44;5189654;57;21467;-86
2021/09/19 12:00:11;;;;;;;2.40;1.73;;;;;;;14.56;65.69;100831.45;5188854;57;21205;-91
2021/09/19 12:05:19;;;;;;;2.13;1.93;;;;;;;14.60;65.86;100828.88;5189287;57;21262;-85
2021/09/19 12:10:28;;;;;;;4.00;1.80;;;;;;;14.63;66.09;100827.28;5138960;57;21191;-88
2021/09/19 12:15:37;;;;;;;2.07;1.87;;;;;;;14.72;65.89;100832.61;5189430;57;21136;-90
2021/09/19 12:20:46;;;;;;;10.47;2.77;;;;;;;14.81;66.07;100826.13;5158170;57;21215;-88
2021/09/19 12:25:53;;;;;;;2.10;1.87;;;;;;;14.86;64.95;100826.04;5143347;57;21192;-88
2021/09/19 12:30:59;;;;;;;3.00;1.90;;;;;;;14.89;65.12;100824.92;5145741;57;21269;-88
2021/09/19 12:36:09;;;;;;;4.40;3.27;;;;;;;14.88;64.87;100825.41;5171445;56;21188;-90
2021/09/19 12:41:17;;;;;;;4.07;2.60;;;;;;;14.88;65.42;100829.41;5216161;56;21831;-90
2021/09/19 12:46:23;;;;;;;2.20;1.70;;;;;;;14.88;65.14;100817.91;5215738;56;21536;-87
2021/09/19 12:51:29;;;;;;;2.43;2.13;;;;;;;14.84;63.05;100817.83;5215597;56;21556;-90
2021/09/19 12:56:35;;;;;;;4.83;2.60;;;;;;;14.90;64.82;100816.80;5215533;56;21121;-86
2021/09/19 13:01:41;;;;;;;5.70;2.67;;;;;;;14.95;64.38;100812.39;5215453;56;21188;-92
2021/09/19 13:06:47;;;;;;;2.30;2.10;;;;;;;14.99;65.44;100815.95;5215396;56;21236;-89
2021/09/19 13:11:53;;;;;;;2.27;1.80;;;;;;;15.05;64.88;100818.55;5214985;56;21176;-83
2021/09/19 13:16:59;;;;;;;4.20;2.80;;;;;;;15.05;65.42;100820.72;5214607;56;21613;-86
2021/09/19 13:22:05;;;;;;;2.27;2.07;;;;;;;15.08;65.20;100815.61;5281678;56;21582;-86
2021/09/19 13:27:11;;;;;;;2.60;2.40;;;;;;;15.05;65.08;100815.40;5295694;56;21577;-86
2021/09/19 13:32:17;;;;;;;3.17;1.87;;;;;;;15.01;64.60;100808.66;5295371;56;22483;-85
2021/09/19 13:37:22;;;;;;;8.37;2.93;;;;;;;14.90;65.30;100814.62;5251581;56;21692;-90
2021/09/19 13:42:28;;;;;;;4.97;2.87;;;;;;;14.89;65.60;100812.94;5226170;56;21175;-91
2021/09/19 13:47:34;;;;;;;7.73;3.03;;;;;;;14.89;66.46;100811.12;5226503;56;21711;-91
2021/09/19 13:52:41;;;;;;;7.87;2.83;;;;;;;14.93;66.39;100801.03;5227099;56;21199;-87
2021/09/19 13:57:46;;;;;;;5.47;2.87;;;;;;;14.93;66.59;100799.21;5227978;56;21187;-83
2021/09/19 14:02:52;;;;;;;4.70;2.73;;;;;;;14.89;65.60;100807.61;5228108;56;21465;-88
2021/09/19 14:07:58;;;;;;;4.90;2.43;;;;;;;14.76;66.32;100808.73;5226940;56;21537;-84
2021/09/19 14:13:05;;;;;;;4.37;3.20;;;;;;;14.76;66.43;100816.72;5224903;56;21315;-83
2021/09/19 14:18:12;;;;;;;6.83;2.93;;;;;;;14.73;66.01;100820.14;5225613;56;21238;-86
2021/09/19 14:23:17;;;;;;;5.37;2.83;;;;;;;14.70;66.30;100819.92;5222324;56;21210;-85
2021/09/19 14:28:23;;;;;;;3.03;2.50;;;;;;;14.68;66.77;100829.86;5222181;56;21198;-90
2021/09/19 14:33:28;;;;;;;4.13;3.27;;;;;;;14.72;66.87;100830.44;5221960;56;21549;-91
2021/09/19 14:38:34;;;;;;;2.97;2.40;;;;;;;14.72;66.85;100827.77;5281238;56;21139;-89
2021/09/19 14:43:40;;;;;;;8.43;4.00;;;;;;;14.72;67.01;100832.61;5289830;56;21191;-88
2021/09/19 14:48:45;;;;;;;2.90;2.60;;;;;;;14.78;67.54;100825.41;5289766;56;21108;-87
2021/09/19 14:53:54;;;;;;;5.53;3.27;;;;;;;14.92;67.54;100829.98;5290145;56;21613;-90
2021/09/19 14:58:59;;;;;;;3.20;2.60;;;;;;;14.98;67.32;100816.08;5282850;56;21191;-83
2021/09/19 15:04:05;;;;;;;3.87;2.40;;;;;;;14.90;66.49;100822.12;5289904;56;21626;-90
2021/09/19 15:09:11;;;;;;;5.63;2.87;;;;;;;14.79;65.27;100816.94;5289685;56;21214;-91
2021/09/19 15:14:16;;;;;;;4.70;2.80;;;;;;;14.72;64.87;100818.45;5289462;56;21124;-85
2021/09/19 15:19:22;;;;;;;3.93;3.10;;;;;;;14.66;65.69;100823.02;5289430;56;22420;-89
2021/09/19 15:24:29;;;;;;;5.63;2.60;;;;;;;14.63;65.86;100822.80;5292476;56;21195;-85
2021/09/19 15:29:35;;;;;;;6.53;1.73;;;;;;;14.62;65.94;100831.77;5292360;56;21187;-89
2021/09/19 15:34:41;;;;;;;4.60;2.10;;;;;;;14.58;65.81;100830.84;5285839;56;21462;-88
2021/09/19 15:39:47;;;;;;;3.33;1.87;;;;;;;14.47;66.04;100826.48;5225404;56;22390;-86
2021/09/19 15:44:54;;;;;;;8.23;2.70;;;;;;;14.41;66.39;100819.03;5229047;56;21115;-86
2021/09/19 15:49:59;;;;;;;6.00;2.03;;;;;;;14.38;66.68;100826.75;5227018;56;21292;-90
2021/09/19 15:55:06;;;;;;;5.07;1.80;;;;;;;14.32;66.81;100822.00;5226269;56;21178;-83
2021/09/19 16:00:12;;;;;;;3.83;1.70;;;;;;;14.28;67.04;100828.56;5226705;56;21174;-90
2021/09/19 16:05:18;;;;;;;10.07;4.13;;;;;;;14.25;67.34;100825.31;5226706;56;21195;-92
2021/09/19 16:10:24;;;;;;;4.00;3.00;;;;;;;14.20;67.33;100828.89;5227021;56;21143;-91
2021/09/19 16:15:30;;;;;;;4.43;3.80;;;;;;;14.16;67.70;100828.80;5227435;56;21115;-90
2021/09/19 16:20:37;;;;;;;4.37;2.97;;;;;;;14.12;67.72;100830.88;5222876;56;21609;-87
2021/09/19 16:25:45;;;;;;;2.03;1.83;;;;;;;14.06;67.67;100834.06;5168721;57;21209;-84
2021/09/19 16:30:51;;;;;;;8.67;2.30;;;;;;;13.98;67.72;100833.41;5245708;56;21163;-85
2021/09/19 16:35:57;;;;;;;4.37;2.20;;;;;;;13.94;68.01;100834.64;5235232;56;21228;-80
2021/09/19 16:41:03;;;;;;;2.80;2.60;;;;;;;13.92;68.17;100831.76;5244885;56;21273;-82
2021/09/19 16:46:10;;;;;;;20.60;13.97;;;;;;;13.88;68.41;100841.00;5211954;56;21199;-81
2021/09/19 16:51:16;;;;;;;10.70;7.27;;;;;;;13.86;68.58;100841.61;5211232;56;22399;-79
2021/09/19 16:56:22;;;;;;;10.63;6.23;;;;;;;13.84;68.83;100839.08;5209687;56;21485;-80
2021/09/19 17:01:28;;;;;;;12.20;5.70;;;;;;;13.80;68.90;100840.31;5209361;56;21216;-78
2021/09/19 17:06:33;;;;;;;11.97;7.53;;;;;;;13.76;69.04;100838.88;5209192;56;21181;-82
2021/09/19 17:11:39;;;;;;;15.57;9.00;;;;;;;13.69;69.00;100843.06;5210456;56;21176;-77
2021/09/19 17:16:45;;;;;;;20.47;12.90;;;;;;;13.67;69.42;100847.66;5210302;56;21602;-76
2021/09/19 17:21:50;;;;;;;21.37;7.47;;;;;;;13.63;69.65;100857.70;5217850;56;21168;-80
2021/09/19 17:26:57;;;;;;;17.00;9.13;;;;;;;13.68;69.79;100858.65;5255397;56;21182;-80
2021/09/19 17:32:03;;;;;;;9.73;5.23;;;;;;;13.74;69.99;100864.78;5255332;56;21465;-80
2021/09/19 17:37:09;;;;;;;11.17;6.13;;;;;;;13.68;69.77;100873.27;5222413;56;21246;-81
2021/09/19 17:42:16;;;;;;;9.07;5.70;;;;;;;13.64;69.97;100871.34;5239317;55;21183;-79
2021/09/19 17:47:22;;;;;;;18.43;9.83;;;;;;;13.63;70.07;100876.79;5255423;56;21219;-77
2021/09/19 17:52:28;;;;;;;14.60;7.70;;;;;;;13.58;70.15;100871.05;5255286;55;21187;-78
2021/09/19 17:57:38;;;;;;;15.37;6.30;;;;;;;13.54;70.16;100877.09;5248117;56;21246;-79
2021/09/19 18:02:44;;;;;;;11.93;6.27;;;;;;;13.47;70.24;100875.06;5249438;56;21198;-81
2021/09/19 18:07:50;;;;;;;15.20;6.37;;;;;;;13.38;70.24;100874.88;5255100;56;22619;-81
2021/09/19 18:12:57;;;;;;;15.53;7.50;;;;;;;13.35;70.39;100882.26;5255337;55;21788;-82
2021/09/19 18:18:04;;;;;;;19.27;9.10;;;;;;;13.34;70.58;100882.74;5255759;56;21665;-80
2021/09/19 18:23:11;;;;;;;15.33;6.63;;;;;;;13.35;70.79;100887.57;5242802;55;21623;-80
2021/09/19 18:28:18;;;;;;;10.00;5.60;;;;;;;13.38;70.83;100897.47;5209686;56;21173;-78
2021/09/19 18:33:23;;;;;;;5.60;3.97;;;;;;;13.40;70.72;100888.53;5219062;56;21093;-79
2021/09/19 18:38:30;;;;;;;9.00;5.80;;;;;;;13.33;70.66;100889.50;5188805;56;21148;-78
2021/09/19 18:43:36;;;;;;;10.47;5.83;;;;;;;13.28;70.70;100891.72;5221637;56;21125;-78
2021/09/19 18:48:42;;;;;;;9.43;5.03;;;;;;;13.24;70.87;100891.61;5221477;56;21153;-80
2021/09/19 18:53:48;;;;;;;24.83;18.53;;;;;;;13.17;70.69;100899.23;5221235;56;21160;-81
2021/09/19 18:58:54;;;;;;;8.30;4.60;;;;;;;13.09;70.97;100896.34;5221106;56;21152;-80
2021/09/19 19:04:00;;;;;;;7.13;5.27;;;;;;;13.10;70.93;100895.38;5221211;56;21494;-77
2021/09/19 19:09:06;;;;;;;12.50;7.40;;;;;;;13.12;71.04;100907.20;5221221;56;21209;-77
2021/09/19 19:14:12;;;;;;;8.93;4.13;;;;;;;13.12;71.22;100907.20;5221150;56;21148;-81
2021/09/19 19:19:18;;;;;;;10.07;5.13;;;;;;;13.08;71.17;100911.07;5221140;56;21209;-79
2021/09/19 19:24:23;;;;;;;7.27;4.17;;;;;;;13.07;71.31;100902.26;5220170;56;21227;-78
2021/09/19 19:29:29;;;;;;;15.73;6.77;;;;;;;12.98;71.13;100907.84;5210084;56;21880;-80
2021/09/19 19:34:35;;;;;;;10.97;5.73;;;;;;;12.95;71.35;100902.78;5207169;56;21174;-80
2021/09/19 19:39:41;;;;;;;17.03;7.70;;;;;;;12.94;71.36;100913.53;5165255;57;21263;-79
2021/09/19 19:44:47;;;;;;;12.60;6.07;;;;;;;12.93;71.33;100911.84;5164437;57;21249;-81
2021/09/19 19:49:55;;;;;;;7.70;4.50;;;;;;;12.98;71.40;100912.31;5165235;57;21743;-78
2021/09/19 19:55:01;;;;;;;9.70;3.97;;;;;;;13.00;71.46;100912.52;5164352;57;21175;-79
2021/09/19 20:00:09;;;;;;;9.93;5.23;;;;;;;12.98;71.40;100913.16;5163929;57;21171;-80
2021/09/19 20:05:19;;;;;;;14.10;5.27;;;;;;;12.96;71.42;100912.44;5164407;57;21263;-80
2021/09/19 20:10:25;;;;;;;9.03;4.53;;;;;;;12.92;71.38;100916.78;5164197;57;21179;-79
2021/09/19 20:15:31;;;;;;;6.17;4.03;;;;;;;12.86;71.29;100918.11;5164183;57;21238;-80
2021/09/19 20:20:36;;;;;;;9.27;3.33;;;;;;;12.77;71.42;100922.84;5164223;57;21498;-81
2021/09/19 20:25:42;;;;;;;6.10;2.97;;;;;;;12.73;71.40;100926.70;5202929;56;21240;-81
2021/09/19 20:30:48;;;;;;;24.00;5.70;;;;;;;12.73;71.37;100932.49;5245756;56;21606;-78
2021/09/19 20:35:54;;;;;;;8.00;4.23;;;;;;;12.78;71.42;100932.98;5265091;56;21640;-78
2021/09/19 20:41:00;;;;;;;5.67;3.80;;;;;;;12.83;71.46;100936.94;5303122;56;21179;-78
2021/09/19 20:46:05;;;;;;;4.40;4.00;;;;;;;12.85;71.40;100932.34;5303320;56;21171;-81
2021/09/19 20:51:11;;;;;;;8.70;5.23;;;;;;;12.83;71.50;100932.95;5303309;56;21223;-79
2021/09/19 20:56:17;;;;;;;11.90;6.30;;;;;;;12.82;71.43;100925.98;5303855;56;21620;-78
2021/09/19 21:01:23;;;;;;;15.37;6.53;;;;;;;12.80;71.25;100931.05;5303852;56;21167;-82
2021/09/19 21:06:31;;;;;;;14.43;5.33;;;;;;;12.72;71.20;100941.42;5303783;56;21175;-80
2021/09/19 21:11:37;;;;;;;10.70;3.43;;;;;;;12.67;71.37;100940.00;5304486;56;21449;-77
2021/09/19 21:16:42;;;;;;;3.67;2.60;;;;;;;12.65;71.40;100947.72;5304176;56;22387;-77
2021/09/19 21:21:48;;;;;;;2.73;2.50;;;;;;;12.62;71.20;100946.63;5302928;56;21183;-79
2021/09/19 21:26:55;;;;;;;3.70;2.83;;;;;;;12.60;71.49;100940.11;5251640;56;21200;-81
2021/09/19 21:32:00;;;;;;;4.30;3.30;;;;;;;12.63;71.67;100937.22;5211576;56;21232;-80
2021/09/19 21:37:08;;;;;;;4.40;3.20;;;;;;;12.63;71.72;100937.22;5185207;56;21219;-80
2021/09/19 21:42:13;;;;;;;4.80;3.30;;;;;;;12.60;71.62;100941.44;5165157;57;21236;-77
2021/09/19 21:47:19;;;;;;;6.10;2.97;;;;;;;12.53;71.58;100949.51;5165652;57;21127;-77
2021/09/19 21:52:26;;;;;;;6.00;3.53;;;;;;;12.46;71.71;100943.50;5165514;57;21112;-77
2021/09/19 21:57:32;;;;;;;5.47;3.00;;;;;;;12.44;72.26;100948.92;5165550;57;21183;-80
2021/09/19 22:02:37;;;;;;;7.07;3.27;;;;;;;12.42;72.21;100945.53;5165386;57;21155;-79
2021/09/19 22:07:46;;;;;;;3.27;2.83;;;;;;;12.44;72.48;100950.25;5165502;57;21171;-77
2021/09/19 22:13:03;;;;;;;5.43;2.53;;;;;;;12.45;72.54;100947.95;5165406;57;21175;-81
2021/09/19 22:18:00;;;;;;;4.10;2.60;;;;;;;12.36;72.45;100949.17;5163883;57;21120;-79
2021/09/19 22:23:07;;;;;;;4.00;2.50;;;;;;;12.29;72.83;100948.79;5165726;57;21218;-80
2021/09/19 22:28:12;;;;;;;5.67;3.07;;;;;;;12.19;72.74;100950.00;5218193;56;21129;-78
2021/09/19 22:33:19;;;;;;;3.67;2.40;;;;;;;12.11;72.92;100951.53;5245484;56;21582;-78
2021/09/19 22:38:25;;;;;;;3.63;2.60;;;;;;;12.10;73.17;100948.04;5293728;56;21163;-79
2021/09/19 22:43:32;;;;;;;4.20;2.30;;;;;;;12.03;73.50;100952.14;5302844;56;21446;-79
2021/09/19 22:48:38;;;;;;;3.87;2.30;;;;;;;12.02;73.85;100954.91;5302513;56;21491;-80
2021/09/19 22:53:45;;;;;;;3.67;2.60;;;;;;;11.96;73.96;100962.84;5303177;56;21214;-77
2021/09/19 22:58:51;;;;;;;3.57;2.57;;;;;;;11.96;74.14;100958.86;5303513;56;21238;-79
2021/09/19 23:03:57;;;;;;;4.60;2.30;;;;;;;12.02;74.33;100957.08;5303273;56;21469;-81
2021/09/19 23:09:03;;;;;;;2.97;2.70;;;;;;;12.04;74.29;100953.83;5302972;56;21120;-80
2021/09/19 23:14:09;;;;;;;6.33;3.10;;;;;;;12.05;74.37;100962.63;5302881;56;21179;-79
2021/09/19 23:19:15;;;;;;;4.87;2.63;;;;;;;11.99;74.53;100959.95;5303268;56;21120;-78
2021/09/19 23:24:21;;;;;;;7.40;2.77;;;;;;;11.93;74.58;100965.72;5303393;56;21171;-76
2021/09/19 23:29:27;;;;;;;5.33;2.47;;;;;;;11.93;74.78;100965.23;5234535;56;21121;-79
2021/09/19 23:34:33;;;;;;;2.97;2.47;;;;;;;11.92;74.86;100968.00;5206659;56;21192;-80
2021/09/19 23:39:38;;;;;;;2.77;2.40;;;;;;;11.87;75.05;100967.05;5141884;57;21276;-77
2021/09/19 23:44:44;;;;;;;3.40;2.17;;;;;;;11.85;75.32;100969.44;5116870;57;21192;-78